sensor_id;sensor_type;location;lat;lon;timestamp;pressure;altitude;pressure_sealevel;temperature;humidity
68179;BME280;54998;42.656;23.382;2023-04-06T00:01:37;94567.81;;;-1.74;65.82
68179;BME280;54998;42.656;23.382;2023-04-06T00:04:03;94580.38;;;-1.74;65.92
68179;BME280;54998;42.656;23.382;2023-04-06T00:06:28;94573.44;;;-1.69;65.33
68179;BME280;54998;42.656;23.382;2023-04-06T00:08:55;94569.38;;;-1.71;65.44
68179;BME280;54998;42.656;23.382;2023-04-06T00:11:21;94574.09;;;-1.65;65.49
68179;BME280;54998;42.656;23.382;2023-04-06T00:13:46;94563.38;;;-1.69;65.59
68179;BME280;54998;42.656;23.382;2023-04-06T00:16:12;94569.66;;;-1.77;65.71
68179;BME280;54998;42.656;23.382;2023-04-06T00:18:37;94561.38;;;-1.79;65.97
68179;BME280;54998;42.656;23.382;2023-04-06T00:21:03;94561.66;;;-1.68;65.66
68179;BME280;54998;42.656;23.382;2023-04-06T00:23:28;94562.69;;;-1.72;66.04
68179;BME280;54998;42.656;23.382;2023-04-06T00:25:54;94552.50;;;-1.69;65.74
68179;BME280;54998;42.656;23.382;2023-04-06T00:28:20;94558.25;;;-1.67;65.57
68179;BME280;54998;42.656;23.382;2023-04-06T00:30:51;94561.22;;;-1.76;65.67
68179;BME280;54998;42.656;23.382;2023-04-06T00:33:17;94558.06;;;-1.80;66.19
68179;BME280;54998;42.656;23.382;2023-04-06T00:35:43;94560.63;;;-1.81;66.33
68179;BME280;54998;42.656;23.382;2023-04-06T00:38:08;94551.03;;;-1.73;66.21
68179;BME280;54998;42.656;23.382;2023-04-06T00:40:34;94552.47;;;-1.87;66.46
68179;BME280;54998;42.656;23.382;2023-04-06T00:43:00;94563.72;;;-1.76;66.25
68179;BME280;54998;42.656;23.382;2023-04-06T00:45:25;94549.09;;;-1.86;66.58
68179;BME280;54998;42.656;23.382;2023-04-06T00:47:51;94547.03;;;-1.77;66.41
68179;BME280;54998;42.656;23.382;2023-04-06T00:50:17;94550.00;;;-1.69;66.00
68179;BME280;54998;42.656;23.382;2023-04-06T00:52:42;94558.88;;;-1.79;66.43
68179;BME280;54998;42.656;23.382;2023-04-06T00:55:08;94553.22;;;-1.84;66.69
68179;BME280;54998;42.656;23.382;2023-04-06T00:57:33;94549.59;;;-1.79;66.43
68179;BME280;54998;42.656;23.382;2023-04-06T00:59:58;94552.63;;;-1.72;66.15
68179;BME280;54998;42.656;23.382;2023-04-06T01:02:24;94548.50;;;-1.73;66.27
68179;BME280;54998;42.656;23.382;2023-04-06T01:04:52;94546.81;;;-1.73;66.27
68179;BME280;54998;42.656;23.382;2023-04-06T01:07:17;94542.06;;;-1.61;65.77
68179;BME280;54998;42.656;23.382;2023-04-06T01:09:43;94539.31;;;-1.57;65.73
68179;BME280;54998;42.656;23.382;2023-04-06T01:12:08;94536.78;;;-1.57;65.41
68179;BME280;54998;42.656;23.382;2023-04-06T01:14:34;94542.56;;;-1.55;65.35
68179;BME280;54998;42.656;23.382;2023-04-06T01:16:59;94535.81;;;-1.54;65.55
68179;BME280;54998;42.656;23.382;2023-04-06T01:19:25;94518.44;;;-1.59;65.46
68179;BME280;54998;42.656;23.382;2023-04-06T01:21:51;94527.63;;;-1.58;65.28
68179;BME280;54998;42.656;23.382;2023-04-06T01:24:19;94525.19;;;-1.59;65.66
68179;BME280;54998;42.656;23.382;2023-04-06T01:26:44;94525.91;;;-1.57;65.83
68179;BME280;54998;42.656;23.382;2023-04-06T01:29:10;94527.69;;;-1.59;65.87
68179;BME280;54998;42.656;23.382;2023-04-06T01:31:36;94525.34;;;-1.62;66.00
68179;BME280;54998;42.656;23.382;2023-04-06T01:34:02;94532.50;;;-1.55;65.92
68179;BME280;54998;42.656;23.382;2023-04-06T01:36:28;94514.59;;;-1.49;65.75
68179;BME280;54998;42.656;23.382;2023-04-06T01:38:53;94523.69;;;-1.46;65.68
68179;BME280;54998;42.656;23.382;2023-04-06T01:41:18;94511.25;;;-1.49;65.42
68179;BME280;54998;42.656;23.382;2023-04-06T01:43:45;94523.47;;;-1.41;65.31
68179;BME280;54998;42.656;23.382;2023-04-06T01:46:11;94524.94;;;-1.37;65.14
68179;BME280;54998;42.656;23.382;2023-04-06T01:48:36;94520.72;;;-1.37;65.43
68179;BME280;54998;42.656;23.382;2023-04-06T01:51:02;94506.50;;;-1.38;65.19
68179;BME280;54998;42.656;23.382;2023-04-06T01:53:27;94504.06;;;-1.39;65.10
68179;BME280;54998;42.656;23.382;2023-04-06T01:55:53;94512.34;;;-1.37;65.01
68179;BME280;54998;42.656;23.382;2023-04-06T01:58:18;94516.50;;;-1.36;65.40
68179;BME280;54998;42.656;23.382;2023-04-06T02:00:43;94514.50;;;-1.30;65.00
68179;BME280;54998;42.656;23.382;2023-04-06T02:03:09;94507.44;;;-1.23;65.14
68179;BME280;54998;42.656;23.382;2023-04-06T02:05:34;94509.53;;;-1.31;65.11
68179;BME280;54998;42.656;23.382;2023-04-06T02:08:06;94512.59;;;-1.42;65.47
68179;BME280;54998;42.656;23.382;2023-04-06T02:10:35;94508.84;;;-1.35;65.39
68179;BME280;54998;42.656;23.382;2023-04-06T02:13:01;94498.97;;;-1.22;64.83
68179;BME280;54998;42.656;23.382;2023-04-06T02:15:27;94498.69;;;-1.16;64.63
68179;BME280;54998;42.656;23.382;2023-04-06T02:17:52;94481.84;;;-1.15;64.57
68179;BME280;54998;42.656;23.382;2023-04-06T02:20:18;94490.63;;;-1.07;64.27
68179;BME280;54998;42.656;23.382;2023-04-06T02:22:43;94497.47;;;-1.09;64.29
68179;BME280;54998;42.656;23.382;2023-04-06T02:25:09;94494.22;;;-1.11;64.23
68179;BME280;54998;42.656;23.382;2023-04-06T02:27:35;94489.34;;;-1.14;64.53
68179;BME280;54998;42.656;23.382;2023-04-06T02:30:01;94479.34;;;-1.15;64.73
68179;BME280;54998;42.656;23.382;2023-04-06T02:32:27;94475.63;;;-1.08;64.12
68179;BME280;54998;42.656;23.382;2023-04-06T02:34:52;94491.13;;;-1.16;64.42
68179;BME280;54998;42.656;23.382;2023-04-06T02:37:18;94509.84;;;-1.21;64.77
68179;BME280;54998;42.656;23.382;2023-04-06T02:39:43;94493.94;;;-1.22;64.85
68179;BME280;54998;42.656;23.382;2023-04-06T02:42:08;94491.91;;;-1.31;64.78
68179;BME280;54998;42.656;23.382;2023-04-06T02:44:34;94491.97;;;-1.33;64.87
68179;BME280;54998;42.656;23.382;2023-04-06T02:47:00;94487.44;;;-1.26;64.81
68179;BME280;54998;42.656;23.382;2023-04-06T02:49:25;94484.91;;;-1.26;64.71
68179;BME280;54998;42.656;23.382;2023-04-06T02:51:51;94496.47;;;-1.22;64.85
68179;BME280;54998;42.656;23.382;2023-04-06T02:54:16;94486.81;;;-1.14;64.80
68179;BME280;54998;42.656;23.382;2023-04-06T02:56:42;94483.81;;;-1.20;64.97
68179;BME280;54998;42.656;23.382;2023-04-06T02:59:07;94493.63;;;-1.16;64.76
68179;BME280;54998;42.656;23.382;2023-04-06T03:01:32;94487.19;;;-1.04;64.42
68179;BME280;54998;42.656;23.382;2023-04-06T03:03:58;94496.50;;;-1.06;64.71
68179;BME280;54998;42.656;23.382;2023-04-06T03:06:23;94499.03;;;-1.06;64.39
68179;BME280;54998;42.656;23.382;2023-04-06T03:08:48;94494.63;;;-1.18;64.78
68179;BME280;54998;42.656;23.382;2023-04-06T03:11:14;94479.34;;;-1.15;65.00
68179;BME280;54998;42.656;23.382;2023-04-06T03:13:39;94485.03;;;-1.12;64.54
68179;BME280;54998;42.656;23.382;2023-04-06T03:16:05;94487.56;;;-1.12;64.77
68179;BME280;54998;42.656;23.382;2023-04-06T03:18:31;94471.66;;;-1.12;64.90
68179;BME280;54998;42.656;23.382;2023-04-06T03:20:57;94470.56;;;-1.24;64.74
68179;BME280;54998;42.656;23.382;2023-04-06T03:23:22;94481.34;;;-1.22;64.87
68179;BME280;54998;42.656;23.382;2023-04-06T03:25:48;94482.03;;;-1.18;64.74
68179;BME280;54998;42.656;23.382;2023-04-06T03:28:14;94472.75;;;-1.18;64.66
68179;BME280;54998;42.656;23.382;2023-04-06T03:30:40;94478.78;;;-1.20;64.90
68179;BME280;54998;42.656;23.382;2023-04-06T03:33:05;94480.31;;;-1.18;64.54
68179;BME280;54998;42.656;23.382;2023-04-06T03:35:31;94471.28;;;-1.22;64.79
68179;BME280;54998;42.656;23.382;2023-04-06T03:37:56;94461.53;;;-1.28;65.05
68179;BME280;54998;42.656;23.382;2023-04-06T03:40:22;94483.50;;;-1.14;64.80
68179;BME280;54998;42.656;23.382;2023-04-06T03:42:48;94480.06;;;-1.29;65.25
68179;BME280;54998;42.656;23.382;2023-04-06T03:45:13;94471.03;;;-1.17;65.18
68179;BME280;54998;42.656;23.382;2023-04-06T03:47:39;94482.09;;;-1.20;64.75
68179;BME280;54998;42.656;23.382;2023-04-06T03:50:05;94474.53;;;-1.20;65.06
68179;BME280;54998;42.656;23.382;2023-04-06T03:52:30;94481.78;;;-1.14;64.56
68179;BME280;54998;42.656;23.382;2023-04-06T03:54:56;94478.53;;;-1.16;64.48
68179;BME280;54998;42.656;23.382;2023-04-06T03:57:21;94443.13;;;-1.13;64.49
68179;BME280;54998;42.656;23.382;2023-04-06T03:59:47;94484.50;;;-1.01;64.16
68179;BME280;54998;42.656;23.382;2023-04-06T04:02:12;94479.09;;;-1.11;64.12
68179;BME280;54998;42.656;23.382;2023-04-06T04:04:37;94471.47;;;-1.09;64.42
68179;BME280;54998;42.656;23.382;2023-04-06T04:07:03;94482.28;;;-0.91;64.01
68179;BME280;54998;42.656;23.382;2023-04-06T04:09:28;94473.25;;;-1.11;64.20
68179;BME280;54998;42.656;23.382;2023-04-06T04:11:53;94484.41;;;-0.99;64.13
68179;BME280;54998;42.656;23.382;2023-04-06T04:14:19;94477.00;;;-1.02;64.03
68179;BME280;54998;42.656;23.382;2023-04-06T04:16:45;94481.78;;;-0.98;63.76
68179;BME280;54998;42.656;23.382;2023-04-06T04:19:10;94473.13;;;-0.92;63.85
68179;BME280;54998;42.656;23.382;2023-04-06T04:21:43;94486.28;;;-0.87;63.90
68179;BME280;54998;42.656;23.382;2023-04-06T04:24:09;94477.25;;;-0.91;63.84
68179;BME280;54998;42.656;23.382;2023-04-06T04:26:34;94475.00;;;-0.80;63.29
68179;BME280;54998;42.656;23.382;2023-04-06T04:29:00;94486.13;;;-0.84;63.46
68179;BME280;54998;42.656;23.382;2023-04-06T04:31:25;94466.22;;;-0.89;63.59
68179;BME280;54998;42.656;23.382;2023-04-06T04:33:51;94492.28;;;-0.90;63.68
68179;BME280;54998;42.656;23.382;2023-04-06T04:36:16;94486.13;;;-0.84;63.75
68179;BME280;54998;42.656;23.382;2023-04-06T04:38:44;94483.94;;;-0.74;63.52
68179;BME280;54998;42.656;23.382;2023-04-06T04:41:10;94471.81;;;-0.68;63.16
68179;BME280;54998;42.656;23.382;2023-04-06T04:43:35;94483.03;;;-0.57;62.98
68179;BME280;54998;42.656;23.382;2023-04-06T04:46:01;94493.38;;;-0.78;63.17
68179;BME280;54998;42.656;23.382;2023-04-06T04:48:26;94481.00;;;-0.67;63.17
68179;BME280;54998;42.656;23.382;2023-04-06T04:50:51;94481.16;;;-0.70;63.56
68179;BME280;54998;42.656;23.382;2023-04-06T04:53:17;94483.09;;;-0.59;63.02
68179;BME280;54998;42.656;23.382;2023-04-06T04:55:42;94475.94;;;-0.51;62.90
68179;BME280;54998;42.656;23.382;2023-04-06T04:58:08;94473.53;;;-0.68;63.07
68179;BME280;54998;42.656;23.382;2023-04-06T05:00:34;94494.75;;;-0.56;63.04
68179;BME280;54998;42.656;23.382;2023-04-06T05:03:00;94474.91;;;-0.63;63.11
68179;BME280;54998;42.656;23.382;2023-04-06T05:05:25;94488.75;;;-0.54;62.78
68179;BME280;54998;42.656;23.382;2023-04-06T05:07:51;94473.75;;;-0.41;62.18
68179;BME280;54998;42.656;23.382;2023-04-06T05:10:16;94483.13;;;-0.43;62.15
68179;BME280;54998;42.656;23.382;2023-04-06T05:12:41;94493.72;;;-0.22;61.83
68179;BME280;54998;42.656;23.382;2023-04-06T05:15:08;94478.88;;;-0.43;61.96
68179;BME280;54998;42.656;23.382;2023-04-06T05:17:34;94474.78;;;-0.29;62.46
68179;BME280;54998;42.656;23.382;2023-04-06T05:19:59;94490.41;;;-0.23;61.99
68179;BME280;54998;42.656;23.382;2023-04-06T05:22:25;94496.59;;;-0.44;62.25
68179;BME280;54998;42.656;23.382;2023-04-06T05:24:51;94501.97;;;-0.34;62.60
68179;BME280;54998;42.656;23.382;2023-04-06T05:27:16;94504.66;;;-0.37;62.54
68179;BME280;54998;42.656;23.382;2023-04-06T05:29:42;94497.16;;;-0.23;62.54
68179;BME280;54998;42.656;23.382;2023-04-06T05:32:07;94493.06;;;-0.10;62.16
68179;BME280;54998;42.656;23.382;2023-04-06T05:34:33;94503.97;;;-0.09;61.72
68179;BME280;54998;42.656;23.382;2023-04-06T05:36:58;94491.06;;;-0.19;62.82
68179;BME280;54998;42.656;23.382;2023-04-06T05:39:23;94494.44;;;-0.04;62.02
68179;BME280;54998;42.656;23.382;2023-04-06T05:41:49;94503.56;;;0.13;61.76
68179;BME280;54998;42.656;23.382;2023-04-06T05:44:14;94489.41;;;-0.20;62.54
68179;BME280;54998;42.656;23.382;2023-04-06T05:46:40;94491.59;;;-0.14;63.22
68179;BME280;54998;42.656;23.382;2023-04-06T05:49:05;94491.53;;;-0.12;63.02
68179;BME280;54998;42.656;23.382;2023-04-06T05:51:31;94491.69;;;-0.15;63.28
68179;BME280;54998;42.656;23.382;2023-04-06T05:53:56;94498.91;;;-0.09;63.10
68179;BME280;54998;42.656;23.382;2023-04-06T05:56:23;94495.69;;;-0.27;64.01
68179;BME280;54998;42.656;23.382;2023-04-06T05:58:48;94477.97;;;-0.26;63.73
68179;BME280;54998;42.656;23.382;2023-04-06T06:01:14;94490.44;;;-0.38;64.21
68179;BME280;54998;42.656;23.382;2023-04-06T06:03:40;94493.84;;;-0.24;64.12
68179;BME280;54998;42.656;23.382;2023-04-06T06:06:05;94495.38;;;0.09;63.86
68179;BME280;54998;42.656;23.382;2023-04-06T06:08:31;94490.75;;;0.02;63.50
68179;BME280;54998;42.656;23.382;2023-04-06T06:10:56;94477.88;;;0.06;63.84
68179;BME280;54998;42.656;23.382;2023-04-06T06:13:23;94488.69;;;0.08;64.11
68179;BME280;54998;42.656;23.382;2023-04-06T06:15:49;94487.41;;;0.31;63.07
68179;BME280;54998;42.656;23.382;2023-04-06T06:18:15;94484.81;;;0.33;62.98
68179;BME280;54998;42.656;23.382;2023-04-06T06:20:40;94487.44;;;0.46;62.75
68179;BME280;54998;42.656;23.382;2023-04-06T06:23:05;94485.16;;;0.41;62.91
68179;BME280;54998;42.656;23.382;2023-04-06T06:25:31;94482.56;;;0.43;63.08
68179;BME280;54998;42.656;23.382;2023-04-06T06:27:57;94487.75;;;0.25;63.95
68179;BME280;54998;42.656;23.382;2023-04-06T06:30:23;94486.41;;;0.34;63.46
68179;BME280;54998;42.656;23.382;2023-04-06T06:32:49;94482.41;;;0.74;63.29
68179;BME280;54998;42.656;23.382;2023-04-06T06:35:14;94485.47;;;0.65;62.63
68179;BME280;54998;42.656;23.382;2023-04-06T06:37:40;94475.06;;;0.41;63.69
68179;BME280;54998;42.656;23.382;2023-04-06T06:40:06;94481.47;;;0.47;63.46
68179;BME280;54998;42.656;23.382;2023-04-06T06:42:31;94487.00;;;0.96;62.54
68179;BME280;54998;42.656;23.382;2023-04-06T06:44:57;94485.81;;;1.58;60.66
68179;BME280;54998;42.656;23.382;2023-04-06T06:47:22;94483.16;;;1.74;59.15
68179;BME280;54998;42.656;23.382;2023-04-06T06:49:47;94479.13;;;1.84;58.65
68179;BME280;54998;42.656;23.382;2023-04-06T06:52:13;94482.22;;;2.02;59.08
68179;BME280;54998;42.656;23.382;2023-04-06T06:54:38;94481.19;;;2.57;57.24
68179;BME280;54998;42.656;23.382;2023-04-06T06:57:04;94481.94;;;3.22;55.21
68179;BME280;54998;42.656;23.382;2023-04-06T06:59:29;94479.75;;;4.14;52.69
68179;BME280;54998;42.656;23.382;2023-04-06T07:01:55;94475.66;;;3.88;53.44
68179;BME280;54998;42.656;23.382;2023-04-06T07:04:20;94483.19;;;6.69;45.57
68179;BME280;54998;42.656;23.382;2023-04-06T07:06:46;94481.69;;;6.66;44.77
68179;BME280;54998;42.656;23.382;2023-04-06T07:09:11;94473.16;;;7.08;45.28
68179;BME280;54998;42.656;23.382;2023-04-06T07:11:36;94453.38;;;6.69;45.23
68179;BME280;54998;42.656;23.382;2023-04-06T07:14:02;94471.09;;;6.08;45.81
68179;BME280;54998;42.656;23.382;2023-04-06T07:16:27;94467.06;;;6.47;43.72
68179;BME280;54998;42.656;23.382;2023-04-06T07:18:53;94450.91;;;5.18;47.67
68179;BME280;54998;42.656;23.382;2023-04-06T07:21:18;94464.66;;;6.25;45.10
68179;BME280;54998;42.656;23.382;2023-04-06T07:23:44;94447.13;;;6.31;45.63
68179;BME280;54998;42.656;23.382;2023-04-06T07:26:10;94465.38;;;5.72;45.59
68179;BME280;54998;42.656;23.382;2023-04-06T07:28:35;94468.00;;;5.27;46.84
68179;BME280;54998;42.656;23.382;2023-04-06T07:31:01;94468.38;;;4.77;48.41
68179;BME280;54998;42.656;23.382;2023-04-06T07:33:26;94473.63;;;5.64;47.13
68179;BME280;54998;42.656;23.382;2023-04-06T07:35:55;94479.69;;;5.41;47.14
68179;BME280;54998;42.656;23.382;2023-04-06T07:38:21;94470.44;;;5.83;45.38
68179;BME280;54998;42.656;23.382;2023-04-06T07:40:47;94460.03;;;5.09;47.63
68179;BME280;54998;42.656;23.382;2023-04-06T07:43:12;94477.00;;;4.74;48.10
68179;BME280;54998;42.656;23.382;2023-04-06T07:45:38;94466.47;;;4.45;49.73
68179;BME280;54998;42.656;23.382;2023-04-06T07:48:03;94473.25;;;3.50;52.48
68179;BME280;54998;42.656;23.382;2023-04-06T07:50:28;94467.72;;;4.40;50.30
68179;BME280;54998;42.656;23.382;2023-04-06T07:52:54;94461.44;;;4.21;50.47
68179;BME280;54998;42.656;23.382;2023-04-06T07:55:19;94468.41;;;5.66;46.84
68179;BME280;54998;42.656;23.382;2023-04-06T07:57:45;94463.13;;;6.01;45.46
68179;BME280;54998;42.656;23.382;2023-04-06T08:00:12;94454.75;;;6.73;44.02
68179;BME280;54998;42.656;23.382;2023-04-06T08:02:38;94473.97;;;7.08;43.40
68179;BME280;54998;42.656;23.382;2023-04-06T08:05:03;94456.44;;;8.04;41.52
68179;BME280;54998;42.656;23.382;2023-04-06T08:07:29;94455.03;;;8.88;39.93
68179;BME280;54998;42.656;23.382;2023-04-06T08:09:54;94453.09;;;8.52;39.68
68179;BME280;54998;42.656;23.382;2023-04-06T08:12:20;94456.16;;;6.87;42.58
68179;BME280;54998;42.656;23.382;2023-04-06T08:14:45;94455.31;;;7.08;43.23
68179;BME280;54998;42.656;23.382;2023-04-06T08:17:11;94454.34;;;7.39;42.78
68179;BME280;54998;42.656;23.382;2023-04-06T08:19:36;94436.13;;;8.22;40.97
68179;BME280;54998;42.656;23.382;2023-04-06T08:22:02;94449.91;;;8.78;40.22
68179;BME280;54998;42.656;23.382;2023-04-06T08:24:27;94456.06;;;8.95;39.43
68179;BME280;54998;42.656;23.382;2023-04-06T08:26:53;94447.72;;;7.87;40.22
68179;BME280;54998;42.656;23.382;2023-04-06T08:29:18;94459.84;;;9.56;37.71
68179;BME280;54998;42.656;23.382;2023-04-06T08:31:44;94437.88;;;8.31;39.66
68179;BME280;54998;42.656;23.382;2023-04-06T08:34:09;94440.03;;;7.68;40.83
68179;BME280;54998;42.656;23.382;2023-04-06T08:36:35;94457.34;;;10.45;36.29
68179;BME280;54998;42.656;23.382;2023-04-06T08:39:01;94455.56;;;9.29;37.83
68179;BME280;54998;42.656;23.382;2023-04-06T08:41:27;94457.88;;;9.22;38.18
68179;BME280;54998;42.656;23.382;2023-04-06T08:44:00;94462.84;;;7.09;41.10
68179;BME280;54998;42.656;23.382;2023-04-06T08:46:26;94443.91;;;5.53;45.24
68179;BME280;54998;42.656;23.382;2023-04-06T08:49:00;94448.97;;;7.02;42.44
68179;BME280;54998;42.656;23.382;2023-04-06T08:51:26;94436.69;;;5.70;45.49
68179;BME280;54998;42.656;23.382;2023-04-06T08:54:01;94460.28;;;6.36;44.00
68179;BME280;54998;42.656;23.382;2023-04-06T08:56:28;94460.25;;;5.40;45.04
68179;BME280;54998;42.656;23.382;2023-04-06T09:03:44;94450.94;;;8.18;38.88
68179;BME280;54998;42.656;23.382;2023-04-06T09:06:13;94417.91;;;6.35;41.51
68179;BME280;54998;42.656;23.382;2023-04-06T09:08:42;94465.78;;;6.32;42.40
68179;BME280;54998;42.656;23.382;2023-04-06T09:11:10;94446.75;;;9.03;38.50
68179;BME280;54998;42.656;23.382;2023-04-06T09:13:50;94444.63;;;6.93;41.15
68179;BME280;54998;42.656;23.382;2023-04-06T09:16:20;94438.34;;;5.48;43.75
68179;BME280;54998;42.656;23.382;2023-04-06T09:18:46;94447.09;;;6.52;41.64
68179;BME280;54998;42.656;23.382;2023-04-06T09:21:12;94426.00;;;7.52;39.71
68179;BME280;54998;42.656;23.382;2023-04-06T09:23:45;94450.41;;;8.25;38.81
68179;BME280;54998;42.656;23.382;2023-04-06T09:26:15;94426.63;;;9.64;36.38
68179;BME280;54998;42.656;23.382;2023-04-06T09:28:50;94428.56;;;9.07;36.91
68179;BME280;54998;42.656;23.382;2023-04-06T09:31:26;94426.63;;;9.46;35.80
68179;BME280;54998;42.656;23.382;2023-04-06T09:33:52;94417.31;;;8.90;36.73
68179;BME280;54998;42.656;23.382;2023-04-06T09:36:34;94420.19;;;6.90;40.40
68179;BME280;54998;42.656;23.382;2023-04-06T09:39:02;94416.34;;;8.14;38.92
68179;BME280;54998;42.656;23.382;2023-04-06T09:41:36;94438.69;;;8.98;37.54
68179;BME280;54998;42.656;23.382;2023-04-06T09:44:10;94424.94;;;9.55;36.71
68179;BME280;54998;42.656;23.382;2023-04-06T09:46:42;94427.38;;;8.15;38.36
68179;BME280;54998;42.656;23.382;2023-04-06T09:49:09;94421.84;;;9.23;36.68
68179;BME280;54998;42.656;23.382;2023-04-06T09:51:39;94427.38;;;9.92;35.20
68179;BME280;54998;42.656;23.382;2023-04-06T09:54:06;94393.75;;;9.77;35.57
68179;BME280;54998;42.656;23.382;2023-04-06T10:05:13;94408.41;;;10.99;32.29
68179;BME280;54998;42.656;23.382;2023-04-06T10:07:44;94431.72;;;10.72;33.45
68179;BME280;54998;42.656;23.382;2023-04-06T10:10:11;94409.06;;;8.49;36.40
68179;BME280;54998;42.656;23.382;2023-04-06T10:12:39;94410.56;;;8.89;35.87
68179;BME280;54998;42.656;23.382;2023-04-06T10:15:05;94411.72;;;8.67;37.05
68179;BME280;54998;42.656;23.382;2023-04-06T10:17:31;94415.75;;;7.33;39.43
68179;BME280;54998;42.656;23.382;2023-04-06T10:20:09;94422.78;;;8.48;37.85
68179;BME280;54998;42.656;23.382;2023-04-06T10:22:45;94421.00;;;8.68;36.35
68179;BME280;54998;42.656;23.382;2023-04-06T10:25:26;94409.09;;;8.86;36.09
68179;BME280;54998;42.656;23.382;2023-04-06T10:28:02;94391.13;;;8.68;36.57
68179;BME280;54998;42.656;23.382;2023-04-06T10:30:30;94425.53;;;10.20;34.08
68179;BME280;54998;42.656;23.382;2023-04-06T10:32:56;94415.84;;;11.02;32.56
68179;BME280;54998;42.656;23.382;2023-04-06T10:35:21;94419.16;;;10.24;33.14
68179;BME280;54998;42.656;23.382;2023-04-06T10:37:50;94425.78;;;8.90;35.14
68179;BME280;54998;42.656;23.382;2023-04-06T10:42:45;94408.69;;;8.14;37.54
68179;BME280;54998;42.656;23.382;2023-04-06T10:45:25;94407.28;;;10.23;33.76
68179;BME280;54998;42.656;23.382;2023-04-06T10:47:54;94417.41;;;11.38;31.55
68179;BME280;54998;42.656;23.382;2023-04-06T10:50:21;94422.84;;;9.40;33.72
68179;BME280;54998;42.656;23.382;2023-04-06T10:52:58;94430.59;;;9.76;34.01
68179;BME280;54998;42.656;23.382;2023-04-06T10:55:25;94427.94;;;9.22;35.14
68179;BME280;54998;42.656;23.382;2023-04-06T10:57:51;94417.28;;;9.73;34.59
68179;BME280;54998;42.656;23.382;2023-04-06T11:00:17;94400.63;;;11.09;31.75
68179;BME280;54998;42.656;23.382;2023-04-06T11:02:44;94390.72;;;8.63;36.17
68179;BME280;54998;42.656;23.382;2023-04-06T11:05:12;94399.50;;;9.89;34.50
68179;BME280;54998;42.656;23.382;2023-04-06T11:07:39;94415.13;;;8.95;34.92
68179;BME280;54998;42.656;23.382;2023-04-06T11:10:05;94413.31;;;7.22;38.47
68179;BME280;54998;42.656;23.382;2023-04-06T11:12:30;94424.22;;;6.93;40.26
68179;BME280;54998;42.656;23.382;2023-04-06T11:15:00;94415.56;;;7.75;38.75
68179;BME280;54998;42.656;23.382;2023-04-06T11:17:36;94415.31;;;6.56;40.65
68179;BME280;54998;42.656;23.382;2023-04-06T11:20:04;94417.75;;;6.79;40.60
68179;BME280;54998;42.656;23.382;2023-04-06T11:22:30;94417.06;;;6.56;40.90
68179;BME280;54998;42.656;23.382;2023-04-06T11:25:06;94414.28;;;6.90;41.17
68179;BME280;54998;42.656;23.382;2023-04-06T11:27:33;94408.13;;;7.02;39.23
68179;BME280;54998;42.656;23.382;2023-04-06T11:30:02;94404.09;;;6.38;41.18
68179;BME280;54998;42.656;23.382;2023-04-06T11:32:28;94386.97;;;7.21;39.32
68179;BME280;54998;42.656;23.382;2023-04-06T11:34:53;94405.59;;;7.91;38.44
68179;BME280;54998;42.656;23.382;2023-04-06T11:37:19;94417.25;;;6.95;39.73
68179;BME280;54998;42.656;23.382;2023-04-06T11:39:49;94402.78;;;7.05;39.76
68179;BME280;54998;42.656;23.382;2023-04-06T11:42:23;94394.72;;;5.85;42.04
68179;BME280;54998;42.656;23.382;2023-04-06T11:44:53;94396.22;;;6.72;40.79
68179;BME280;54998;42.656;23.382;2023-04-06T11:47:19;94408.06;;;7.23;39.43
68179;BME280;54998;42.656;23.382;2023-04-06T11:49:45;94405.22;;;6.76;39.90
68179;BME280;54998;42.656;23.382;2023-04-06T11:52:28;94399.38;;;6.12;41.55
68179;BME280;54998;42.656;23.382;2023-04-06T11:54:55;94391.25;;;5.86;42.35
68179;BME280;54998;42.656;23.382;2023-04-06T11:57:22;94404.09;;;5.96;42.02
68179;BME280;54998;42.656;23.382;2023-04-06T11:59:50;94398.63;;;6.22;41.96
68179;BME280;54998;42.656;23.382;2023-04-06T12:02:16;94408.19;;;5.76;42.76
68179;BME280;54998;42.656;23.382;2023-04-06T12:04:42;94396.75;;;5.38;43.59
68179;BME280;54998;42.656;23.382;2023-04-06T12:07:08;94403.16;;;5.65;43.60
68179;BME280;54998;42.656;23.382;2023-04-06T12:09:34;94392.91;;;5.44;43.80
68179;BME280;54998;42.656;23.382;2023-04-06T12:12:03;94407.31;;;5.11;45.05
68179;BME280;54998;42.656;23.382;2023-04-06T12:14:29;94403.22;;;5.31;44.62
68179;BME280;54998;42.656;23.382;2023-04-06T12:16:55;94394.03;;;5.07;44.74
68179;BME280;54998;42.656;23.382;2023-04-06T12:19:21;94388.38;;;5.04;44.80
68179;BME280;54998;42.656;23.382;2023-04-06T12:21:50;94398.91;;;4.54;46.30
68179;BME280;54998;42.656;23.382;2023-04-06T12:24:16;94394.97;;;4.39;46.57
68179;BME280;54998;42.656;23.382;2023-04-06T12:26:42;94385.72;;;4.38;46.56
68179;BME280;54998;42.656;23.382;2023-04-06T12:29:07;94397.41;;;4.40;46.18
68179;BME280;54998;42.656;23.382;2023-04-06T12:31:35;94397.75;;;4.47;46.59
68179;BME280;54998;42.656;23.382;2023-04-06T12:34:02;94393.25;;;4.50;46.52
68179;BME280;54998;42.656;23.382;2023-04-06T12:36:28;94396.13;;;4.91;46.01
68179;BME280;54998;42.656;23.382;2023-04-06T12:38:53;94389.63;;;5.09;45.68
68179;BME280;54998;42.656;23.382;2023-04-06T12:41:19;94388.50;;;5.02;45.58
68179;BME280;54998;42.656;23.382;2023-04-06T12:43:45;94381.13;;;4.65;45.83
68179;BME280;54998;42.656;23.382;2023-04-06T12:46:11;94390.13;;;4.58;46.37
68179;BME280;54998;42.656;23.382;2023-04-06T12:48:37;94378.94;;;4.61;45.67
68179;BME280;54998;42.656;23.382;2023-04-06T12:51:04;94373.38;;;4.89;45.03
68179;BME280;54998;42.656;23.382;2023-04-06T12:53:31;94380.84;;;5.25;44.41
68179;BME280;54998;42.656;23.382;2023-04-06T12:55:57;94377.31;;;4.82;44.93
68179;BME280;54998;42.656;23.382;2023-04-06T12:58:23;94382.03;;;4.98;44.72
68179;BME280;54998;42.656;23.382;2023-04-06T13:00:49;94362.88;;;4.60;45.28
68179;BME280;54998;42.656;23.382;2023-04-06T13:03:18;94366.66;;;4.88;44.93
68179;BME280;54998;42.656;23.382;2023-04-06T13:05:45;94365.53;;;4.59;45.27
68179;BME280;54998;42.656;23.382;2023-04-06T13:08:11;94371.88;;;4.53;45.52